Time;durP1;ratioP1;P1;durP2;ratioP2;P2;SDS_P1;SDS_P2;PMS_P1;PMS_P2;Temp;Humidity;BMP_temperature;BMP_pressure;BME280_temperature;BME280_humidity;BME280_pressure;Samples;Min_cycle;Max_cycle;Signal;HPM_P1;HPM_P2
2022/02/06 00:00:59;;;;;;;11.23;5.32;;;6.10;55.00;;;;;;5101405;28;20055;-60
2022/02/06 00:03:26;;;;;;;10.10;4.43;;;6.10;55.00;;;;;;5110299;27;20102;-58
2022/02/06 00:05:52;;;;;;;10.10;4.10;;;6.10;55.00;;;;;;5112062;27;20023;-59
2022/02/06 00:08:18;;;;;;;8.93;4.05;;;6.10;55.10;;;;;;5103902;27;20024;-59
2022/02/06 00:10:44;;;;;;;11.65;4.05;;;6.20;55.10;;;;;;5101239;28;20047;-59
2022/02/06 00:13:11;;;;;;;9.70;3.90;;;6.10;55.00;;;;;;5110079;28;20024;-60
2022/02/06 00:15:36;;;;;;;9.00;4.30;;;6.10;54.90;;;;;;5111840;27;20030;-60
2022/02/06 00:18:03;;;;;;;7.82;3.70;;;6.20;54.90;;;;;;5110538;28;20358;-59
2022/02/06 00:21:14;;;;;;;7.78;3.85;;;6.10;54.90;;;;;;5104784;27;20084;-59
2022/02/06 00:23:20;;;;;;;7.88;3.58;;;6.10;55.20;;;;;;5099104;28;20438;-59
2022/02/06 00:25:55;;;;;;;7.43;3.30;;;6.10;55.00;;;;;;5111292;27;20036;-59
2022/02/06 00:31:11;;;;;;;8.95;3.60;;;6.10;55.00;;;;;;5108972;27;20126;-60
2022/02/06 00:33:53;;;;;;;9.77;3.67;;;6.10;55.10;;;;;;5109511;27;20031;-60
2022/02/06 00:39:06;;;;;;;9.05;3.38;;;6.10;55.10;;;;;;5113090;27;20388;-60
2022/02/06 00:41:34;;;;;;;6.50;3.25;;;6.10;55.20;;;;;;5110453;27;20027;-61
2022/02/06 00:44:04;;;;;;;7.10;3.40;;;6.10;55.40;;;;;;5111206;28;20406;-60
2022/02/06 00:46:38;;;;;;;9.75;3.47;;;6.00;55.30;;;;;;5109360;27;20031;-60
2022/02/06 00:49:21;;;;;;;8.45;3.22;;;6.10;55.40;;;;;;5122558;27;20020;-59
2022/02/06 00:51:59;;;;;;;11.20;3.47;;;6.00;55.40;;;;;;5113498;27;20035;-60
2022/02/06 00:54:24;;;;;;;9.50;3.88;;;6.00;55.40;;;;;;5105409;28;20023;-60
2022/02/06 00:56:50;;;;;;;9.98;4.30;;;6.00;55.60;;;;;;5110887;27;20031;-60
2022/02/06 00:59:16;;;;;;;10.70;4.07;;;6.00;55.90;;;;;;5112112;27;20019;-60
2022/02/06 01:01:42;;;;;;;14.32;4.75;;;5.90;56.10;;;;;;5111105;27;20397;-60
2022/02/06 01:04:13;;;;;;;9.27;4.45;;;5.90;56.40;;;;;;5122851;27;20742;-61
2022/02/06 01:06:39;;;;;;;10.32;4.97;;;5.80;56.50;;;;;;5103706;27;20031;-61
2022/02/06 01:09:06;;;;;;;10.23;4.85;;;5.80;56.60;;;;;;5115610;27;20109;-60
2022/02/06 01:11:34;;;;;;;9.68;4.20;;;5.80;56.60;;;;;;5111678;27;20118;-60
2022/02/06 01:16:36;;;;;;;14.30;5.95;;;5.70;56.70;;;;;;5115410;28;20076;-60
2022/02/06 01:19:08;;;;;;;9.80;4.68;;;5.60;56.70;;;;;;5108746;28;20031;-59
2022/02/06 01:24:14;;;;;;;15.48;6.50;;;5.70;56.80;;;;;;5110896;28;20043;-60
2022/02/06 01:27:06;;;;;;;38.40;16.75;;;5.60;56.90;;;;;;5109074;28;20035;-60
2022/02/06 01:29:41;;;;;;;12.98;5.85;;;5.60;57.30;;;;;;5110994;28;20106;-59
2022/02/06 01:32:12;;;;;;;11.43;5.60;;;5.40;57.40;;;;;;5111219;28;20048;-60
2022/02/06 01:34:46;;;;;;;15.02;7.68;;;5.40;57.60;;;;;;5113247;28;20032;-59
2022/02/06 01:42:45;;;;;;;11.57;6.20;;;5.30;58.70;;;;;;5111345;27;20498;-59
2022/02/06 02:04:11;;;;;;;8.68;4.50;;;5.30;57.50;;;;;;5114741;28;20039;-59
2022/02/06 02:09:52;;;;;;;11.63;3.63;;;5.40;57.30;;;;;;5114087;28;20035;-61
2022/02/06 02:20:28;;;;;;;8.23;3.38;;;5.50;57.60;;;;;;5113969;28;20130;-60
2022/02/06 02:28:29;;;;;;;8.90;3.90;;;5.50;57.70;;;;;;5113489;28;20027;-60
2022/02/06 02:47:11;;;;;;;9.32;4.13;;;5.50;57.60;;;;;;5110801;28;20322;-61
2022/02/06 02:49:38;;;;;;;9.68;3.65;;;5.50;57.90;;;;;;5111956;28;20100;-61
2022/02/06 02:52:10;;;;;;;9.07;4.10;;;5.50;58.00;;;;;;5112005;28;20487;-62
2022/02/06 02:54:38;;;;;;;7.90;3.72;;;5.50;58.20;;;;;;5108833;28;20145;-62
2022/02/06 02:57:18;;;;;;;8.43;3.67;;;5.40;58.60;;;;;;5113746;28;20019;-61
2022/02/06 03:02:13;;;;;;;10.75;3.85;;;5.50;58.80;;;;;;5113815;28;20089;-62
2022/02/06 03:04:39;;;;;;;8.07;3.53;;;5.50;58.70;;;;;;5111733;28;20028;-61
2022/02/06 03:07:05;;;;;;;6.88;3.67;;;5.60;58.50;;;;;;5113302;28;20415;-61
2022/02/06 03:09:37;;;;;;;7.53;3.80;;;5.60;58.60;;;;;;5111388;28;20106;-61
2022/02/06 03:12:03;;;;;;;9.85;3.88;;;5.60;58.70;;;;;;5112646;28;20531;-61
2022/02/06 03:14:41;;;;;;;9.77;4.93;;;5.60;58.90;;;;;;5112596;28;20049;-60
2022/02/06 03:17:07;;;;;;;9.73;4.38;;;5.60;59.20;;;;;;5113596;28;20024;-60
2022/02/06 03:19:42;;;;;;;8.88;4.10;;;5.60;59.40;;;;;;5112606;28;20027;-61
2022/02/06 03:22:08;;;;;;;9.30;4.38;;;5.50;59.70;;;;;;5111618;28;20075;-60
2022/02/06 03:24:41;;;;;;;8.52;4.53;;;5.40;59.90;;;;;;5112698;28;20023;-61
2022/02/06 03:27:06;;;;;;;7.70;3.95;;;5.40;60.50;;;;;;5112016;28;20061;-61
2022/02/06 03:29:32;;;;;;;8.20;3.80;;;5.40;60.00;;;;;;5112580;28;20062;-61
2022/02/06 03:31:58;;;;;;;6.82;3.70;;;5.30;60.10;;;;;;5113135;28;20081;-61
2022/02/06 03:34:24;;;;;;;7.93;4.65;;;5.30;60.20;;;;;;5112828;28;20032;-60
2022/02/06 03:36:50;;;;;;;9.38;3.83;;;5.30;60.40;;;;;;5112603;28;20166;-61
2022/02/06 03:39:16;;;;;;;6.57;3.67;;;5.20;60.30;;;;;;5112934;28;20515;-60
2022/02/06 03:44:36;;;;;;;8.55;4.20;;;5.20;60.30;;;;;;5112591;28;20073;-60
2022/02/06 03:47:10;;;;;;;12.23;4.95;;;5.20;60.30;;;;;;5113080;28;20020;-60
2022/02/06 03:49:49;;;;;;;13.25;5.15;;;5.30;60.20;;;;;;5128041;27;20046;-62
2022/02/06 03:52:15;;;;;;;11.70;5.18;;;5.30;60.20;;;;;;5121018;27;20130;-61
2022/02/06 03:54:41;;;;;;;12.27;5.55;;;5.30;60.20;;;;;;5117766;27;20031;-61
2022/02/06 03:57:07;;;;;;;9.90;5.15;;;5.30;60.30;;;;;;5113720;27;20020;-61
2022/02/06 03:59:35;;;;;;;14.23;5.30;;;5.30;60.30;;;;;;5111769;28;20035;-60
2022/02/06 04:02:02;;;;;;;9.15;4.15;;;5.30;60.00;;;;;;5122208;27;20031;-60
2022/02/06 04:04:28;;;;;;;8.70;4.32;;;5.30;59.80;;;;;;5112196;28;20152;-60
2022/02/06 04:07:01;;;;;;;9.75;3.58;;;5.20;59.70;;;;;;5115896;27;20034;-61
2022/02/06 04:09:33;;;;;;;7.82;4.05;;;5.30;59.70;;;;;;5110788;28;20095;-61
2022/02/06 04:12:01;;;;;;;10.82;3.85;;;5.30;59.60;;;;;;5112315;28;20120;-60
2022/02/06 04:14:40;;;;;;;8.45;4.07;;;5.30;59.50;;;;;;5110947;28;20442;-60
2022/02/06 04:17:18;;;;;;;6.35;3.08;;;5.30;59.40;;;;;;5112170;28;20031;-60
2022/02/06 04:19:44;;;;;;;8.88;3.08;;;5.30;59.30;;;;;;5112006;28;20024;-61
2022/02/06 04:22:09;;;;;;;7.07;3.10;;;5.40;59.20;;;;;;5112402;28;20035;-60
2022/02/06 04:24:35;;;;;;;7.18;3.38;;;5.40;58.90;;;;;;5111353;28;20096;-60
2022/02/06 04:27:00;;;;;;;7.07;3.42;;;5.40;58.90;;;;;;5112247;28;20023;-60
2022/02/06 04:29:26;;;;;;;5.93;3.20;;;5.40;58.80;;;;;;5111715;28;20106;-61
2022/02/06 04:32:10;;;;;;;14.02;7.57;;;5.50;58.80;;;;;;5110729;28;20073;-60
2022/02/06 04:34:36;;;;;;;66.40;39.42;;;5.50;58.60;;;;;;5103639;28;20023;-61
2022/02/06 05:17:03;;;;;;;7.57;3.88;;;5.70;58.30;;;;;;5110579;28;20031;-61
2022/02/06 05:30:26;;;;;;;;;;;5.80;57.90;;;;;;5111505;28;20030;-60
2022/02/06 05:35:20;;;;;;;6.93;2.53;;;5.90;57.10;;;;;;5103971;28;20028;-62
2022/02/06 05:37:46;;;;;;;8.25;2.45;;;6.00;56.90;;;;;;5109970;28;20389;-59
2022/02/06 05:40:12;;;;;;;7.63;2.60;;;6.00;56.60;;;;;;5110881;28;20031;-59
2022/02/06 05:42:38;;;;;;;5.75;2.50;;;6.10;56.60;;;;;;5108900;28;20111;-61
2022/02/06 05:45:05;;;;;;;6.43;2.35;;;6.10;56.30;;;;;;5110810;28;20149;-59
2022/02/06 05:47:33;;;;;;;4.55;2.47;;;6.10;56.10;;;;;;5110938;28;20123;-60
2022/02/06 05:49:59;;;;;;;6.65;2.70;;;6.10;56.10;;;;;;5109080;28;20023;-60
2022/02/06 05:52:25;;;;;;;6.60;2.47;;;6.10;56.00;;;;;;5110818;28;20111;-60
2022/02/06 05:54:51;;;;;;;4.65;2.53;;;6.20;56.10;;;;;;5108928;28;20019;-59
2022/02/06 05:57:17;;;;;;;5.72;2.40;;;6.20;56.00;;;;;;5109750;28;20024;-59
2022/02/06 05:59:43;;;;;;;7.15;2.10;;;6.30;55.90;;;;;;5110822;28;20031;-59
2022/02/06 06:02:09;;;;;;;7.22;2.58;;;6.30;55.70;;;;;;5112780;27;20032;-59
2022/02/06 06:04:34;;;;;;;6.22;2.25;;;6.20;55.50;;;;;;5110705;28;20379;-59
2022/02/06 06:07:04;;;;;;;7.72;1.98;;;6.20;55.20;;;;;;5116321;28;20032;-60
2022/02/06 06:09:30;;;;;;;5.57;2.03;;;6.20;55.10;;;;;;5096970;28;20032;-60
2022/02/06 06:11:56;;;;;;;5.10;2.17;;;6.20;55.20;;;;;;5109789;28;20028;-60
2022/02/06 06:14:28;;;;;;;3.78;2.03;;;6.10;55.20;;;;;;5110788;28;20081;-60
2022/02/06 06:16:53;;;;;;;4.78;2.03;;;6.10;55.20;;;;;;5115367;28;20487;-60
2022/02/06 06:19:21;;;;;;;6.18;2.22;;;6.20;55.10;;;;;;5106650;27;20027;-60
2022/02/06 06:21:54;;;;;;;6.20;2.58;;;6.20;54.90;;;;;;5103447;28;20139;-60
2022/02/06 06:24:22;;;;;;;4.05;1.88;;;6.20;54.50;;;;;;5102682;28;20093;-60
2022/02/06 06:26:48;;;;;;;5.47;2.10;;;6.20;54.40;;;;;;5106501;28;20024;-62
2022/02/06 06:29:13;;;;;;;5.13;2.05;;;6.30;54.50;;;;;;5112398;28;20024;-61
2022/02/06 06:31:40;;;;;;;4.63;1.92;;;6.30;54.50;;;;;;5116443;27;20127;-61
2022/02/06 06:34:05;;;;;;;6.57;2.40;;;6.40;55.10;;;;;;5118014;27;20028;-61
2022/02/06 06:36:33;;;;;;;5.32;2.35;;;6.50;54.40;;;;;;5105188;28;20020;-61
2022/02/06 06:38:58;;;;;;;6.55;2.22;;;6.50;54.20;;;;;;5112005;28;20024;-61
2022/02/06 06:41:24;;;;;;;8.93;2.58;;;6.60;54.00;;;;;;5101673;28;20367;-60
2022/02/06 06:43:50;;;;;;;6.93;2.22;;;6.60;54.00;;;;;;5119996;27;20035;-61
2022/02/06 06:46:15;;;;;;;6.80;2.30;;;6.70;53.90;;;;;;5111447;28;20051;-61
2022/02/06 06:48:41;;;;;;;5.53;1.90;;;6.70;53.80;;;;;;5103933;28;20032;-61
2022/02/06 06:51:09;;;;;;;8.70;2.53;;;6.80;53.60;;;;;;5110059;28;20024;-60
2022/02/06 06:53:39;;;;;;;3.95;2.20;;;6.80;53.70;;;;;;5106277;28;20042;-60
2022/02/06 06:56:12;;;;;;;9.23;2.70;;;6.80;53.40;;;;;;5097400;28;20035;-60
2022/02/06 06:58:43;;;;;;;9.00;2.25;;;6.90;53.40;;;;;;5106952;28;20031;-60
2022/02/06 07:01:30;;;;;;;7.18;2.20;;;6.90;53.20;;;;;;5104032;27;20034;-60
2022/02/06 07:03:54;;;;;;;6.03;1.75;;;7.00;53.30;;;;;;5112876;28;20032;-60
2022/02/06 07:06:20;;;;;;;5.63;2.08;;;7.10;53.20;;;;;;5113400;28;20019;-60
2022/02/06 07:08:46;;;;;;;7.65;2.50;;;7.20;53.10;;;;;;5111645;28;20052;-60
2022/02/06 07:11:11;;;;;;;6.28;2.30;;;7.20;52.90;;;;;;5106815;28;20019;-60
2022/02/06 07:13:37;;;;;;;11.65;2.83;;;7.30;52.90;;;;;;5103429;28;20118;-60
2022/02/06 07:16:03;;;;;;;16.30;3.88;;;7.30;52.80;;;;;;5112969;28;20026;-60
2022/02/06 07:18:29;;;;;;;18.67;5.07;;;7.40;52.60;;;;;;5117919;27;20145;-59
2022/02/06 07:20:55;;;;;;;14.05;5.28;;;7.40;52.50;;;;;;5114449;27;20504;-60
2022/02/06 07:23:21;;;;;;;12.20;4.10;;;7.50;52.40;;;;;;5116863;27;20114;-61
2022/02/06 07:25:50;;;;;;;8.70;3.33;;;7.50;51.90;;;;;;5111359;28;20153;-60
2022/02/06 07:28:18;;;;;;;7.40;2.97;;;7.60;51.70;;;;;;5113308;28;20024;-59
2022/02/06 07:30:46;;;;;;;6.75;3.15;;;7.70;51.30;;;;;;5114384;27;20042;-61
2022/02/06 07:33:13;;;;;;;5.40;2.30;;;7.70;51.00;;;;;;5124514;27;20031;-60
2022/02/06 07:35:39;;;;;;;6.55;2.28;;;7.70;50.50;;;;;;5108807;27;20034;-60
2022/02/06 07:38:06;;;;;;;6.50;2.40;;;7.80;50.50;;;;;;5105863;28;20034;-59
2022/02/06 07:40:32;;;;;;;6.43;2.50;;;7.80;50.20;;;;;;5111154;28;20028;-60
2022/02/06 07:42:58;;;;;;;6.93;2.65;;;7.80;49.90;;;;;;5103197;28;20119;-60
2022/02/06 07:45:24;;;;;;;7.50;3.30;;;7.80;49.60;;;;;;5104773;28;20485;-60
2022/02/06 07:47:50;;;;;;;8.73;3.17;;;7.80;49.10;;;;;;5111905;27;20059;-60
2022/02/06 07:50:16;;;;;;;7.20;3.38;;;7.70;49.00;;;;;;5112062;27;20063;-60
2022/02/06 07:52:42;;;;;;;7.93;3.08;;;7.70;49.30;;;;;;5104988;28;20122;-61
2022/02/06 07:55:09;;;;;;;9.43;3.30;;;7.70;49.20;;;;;;5102602;27;20050;-61
2022/02/06 07:57:36;;;;;;;10.00;4.38;;;7.80;49.40;;;;;;5119919;27;20038;-61
2022/02/06 08:00:06;;;;;;;10.85;5.28;;;7.80;49.30;;;;;;5117834;27;20113;-61
2022/02/06 08:02:32;;;;;;;20.83;8.48;;;7.80;49.30;;;;;;5113394;27;20020;-60
2022/02/06 08:04:59;;;;;;;6.55;2.08;;;7.90;49.50;;;;;;5107167;27;20403;-60
2022/02/06 08:07:24;;;;;;;5.07;1.70;;;7.80;49.20;;;;;;5113184;27;20049;-61
2022/02/06 08:12:45;;;;;;;5.43;1.75;;;8.00;49.30;;;;;;5072065;28;20510;-60
2022/02/06 08:15:11;;;;;;;6.00;1.50;;;8.10;49.20;;;;;;5048904;28;20064;-61
2022/02/06 08:17:39;;;;;;;5.63;1.67;;;8.20;48.60;;;;;;5052534;28;20462;-60
2022/02/06 08:20:10;;;;;;;7.50;1.67;;;8.40;48.60;;;;;;5067070;28;20035;-60
2022/02/06 08:22:36;;;;;;;5.07;1.45;;;8.50;48.30;;;;;;5049643;28;20028;-60
2022/02/06 08:25:03;;;;;;;5.22;1.40;;;8.60;48.00;;;;;;5074815;28;20414;-60
2022/02/06 08:27:29;;;;;;;3.60;1.23;;;8.70;47.90;;;;;;5067604;28;20131;-60
2022/02/06 08:29:57;;;;;;;5.38;1.50;;;8.80;47.80;;;;;;5057447;28;20041;-61
2022/02/06 08:32:26;;;;;;;5.00;1.50;;;9.00;47.40;;;;;;5074213;28;20143;-62
2022/02/06 08:34:52;;;;;;;6.70;1.95;;;9.20;47.10;;;;;;5054395;28;20027;-62
2022/02/06 08:37:18;;;;;;;6.72;1.50;;;9.30;46.60;;;;;;5055088;28;20041;-62
2022/02/06 08:39:45;;;;;;;5.43;1.15;;;9.30;46.30;;;;;;5064737;28;20031;-61
2022/02/06 08:42:12;;;;;;;4.05;1.48;;;9.30;46.00;;;;;;5062807;28;20082;-63
2022/02/06 08:44:43;;;;;;;4.35;1.70;;;9.20;46.20;;;;;;5057126;28;20029;-61
2022/02/06 08:47:11;;;;;;;3.92;1.50;;;9.20;46.20;;;;;;5062210;28;20166;-62
2022/02/06 08:49:39;;;;;;;4.07;1.55;;;9.30;46.30;;;;;;5093981;27;20039;-62
2022/02/06 08:52:06;;;;;;;6.53;1.70;;;9.20;45.90;;;;;;5109073;28;20023;-62
2022/02/06 08:54:34;;;;;;;4.07;1.45;;;9.20;45.50;;;;;;5125152;27;20023;-62
2022/02/06 08:57:05;;;;;;;4.90;1.45;;;9.30;45.80;;;;;;5111503;27;20036;-61
2022/02/06 08:59:32;;;;;;;2.63;1.40;;;9.30;45.20;;;;;;5105152;28;20020;-62
2022/02/06 09:02:00;;;;;;;3.85;1.45;;;9.30;44.50;;;;;;5103325;28;20111;-60
2022/02/06 09:04:28;;;;;;;4.18;1.58;;;9.40;44.70;;;;;;5107734;28;20024;-62
2022/02/06 09:06:58;;;;;;;4.68;1.50;;;9.30;44.30;;;;;;5108458;28;20024;-60
2022/02/06 09:09:24;;;;;;;3.58;1.45;;;9.20;44.60;;;;;;5111147;28;20020;-62
2022/02/06 09:11:52;;;;;;;4.10;1.55;;;9.20;44.70;;;;;;5110275;28;20055;-62
2022/02/06 09:14:20;;;;;;;5.63;1.63;;;9.20;44.70;;;;;;5111435;28;20027;-61
2022/02/06 09:16:46;;;;;;;3.47;1.50;;;9.30;44.70;;;;;;5111595;28;20024;-63
2022/02/06 09:19:12;;;;;;;6.95;1.55;;;9.40;44.70;;;;;;5106424;28;20465;-61
2022/02/06 09:21:42;;;;;;;3.15;1.40;;;9.60;44.00;;;;;;5109877;28;20055;-61
2022/02/06 09:24:09;;;;;;;6.50;1.60;;;9.60;43.70;;;;;;5110455;28;20043;-61
2022/02/06 09:26:35;;;;;;;3.42;1.38;;;9.60;43.50;;;;;;5109938;28;20027;-61
2022/02/06 09:29:20;;;;;;;3.67;1.27;;;9.70;43.20;;;;;;5108968;28;20112;-62
2022/02/06 09:31:51;;;;;;;3.78;1.42;;;9.80;43.10;;;;;;5111455;28;20028;-61
2022/02/06 09:36:44;;;;;;;4.88;1.63;;;10.10;42.60;;;;;;5109838;28;20039;-61
2022/02/06 09:39:11;;;;;;;4.93;1.55;;;10.20;42.60;;;;;;5108372;28;20100;-61
2022/02/06 09:41:41;;;;;;;3.70;1.65;;;10.30;42.70;;;;;;5110835;28;20139;-61
2022/02/06 09:44:08;;;;;;;6.50;1.48;;;10.40;42.40;;;;;;5109226;28;20024;-62
2022/02/06 09:46:35;;;;;;;4.57;1.60;;;10.70;41.70;;;;;;5108851;28;20031;-61
2022/02/06 09:49:03;;;;;;;4.63;1.48;;;11.00;40.90;;;;;;5110096;28;20550;-61
2022/02/06 09:51:29;;;;;;;3.20;1.48;;;11.10;40.40;;;;;;5110717;28;20023;-61
2022/02/06 09:53:55;;;;;;;2.78;1.35;;;11.30;39.40;;;;;;5111655;28;20540;-62
2022/02/06 09:56:23;;;;;;;4.50;1.48;;;11.40;38.60;;;;;;5113400;28;20019;-62
2022/02/06 09:59:07;;;;;;;3.03;1.60;;;11.60;38.90;;;;;;5115008;28;20027;-61
2022/02/06 10:01:56;;;;;;;2.65;1.40;;;11.80;38.40;;;;;;5112871;28;20023;-61
2022/02/06 10:04:34;;;;;;;2.67;1.10;;;11.90;37.20;;;;;;5111056;28;20035;-61
2022/02/06 10:07:11;;;;;;;4.72;1.75;;;11.80;37.10;;;;;;5114598;28;20099;-64
2022/02/06 10:09:40;;;;;;;4.20;1.20;;;11.80;37.20;;;;;;5117871;27;20027;-62
2022/02/06 10:12:07;;;;;;;4.45;2.20;;;12.00;37.10;;;;;;5123767;27;20119;-62
2022/02/06 10:14:34;;;;;;;6.95;1.70;;;12.00;36.50;;;;;;5114764;27;20024;-61
2022/02/06 10:17:00;;;;;;;3.35;1.63;;;12.20;37.00;;;;;;5105997;27;20024;-61
2022/02/06 10:19:28;;;;;;;6.78;1.50;;;12.40;36.90;;;;;;5086930;28;20353;-62
2022/02/06 10:21:55;;;;;;;5.75;1.60;;;12.70;36.30;;;;;;5108131;28;20130;-62
2022/02/06 10:24:30;;;;;;;3.85;1.60;;;12.80;35.60;;;;;;5111062;28;20465;-62
2022/02/06 10:27:15;;;;;;;6.53;2.53;;;13.00;35.40;;;;;;5101904;28;20053;-62
2022/02/06 10:29:50;;;;;;;3.42;1.33;;;13.00;34.80;;;;;;5107086;27;20118;-62
2022/02/06 10:32:18;;;;;;;5.20;1.90;;;12.90;34.50;;;;;;5109090;28;20168;-62
2022/02/06 10:34:45;;;;;;;6.07;1.80;;;12.80;34.50;;;;;;5112134;28;20031;-63
2022/02/06 10:37:16;;;;;;;3.58;1.40;;;12.60;34.50;;;;;;5105718;27;20142;-63
2022/02/06 10:40:03;;;;;;;2.72;1.10;;;12.50;34.40;;;;;;5100029;28;20106;-63
2022/02/06 10:42:41;;;;;;;1.80;1.00;;;12.30;34.10;;;;;;5116141;27;20068;-63
2022/02/06 10:45:20;;;;;;;2.47;1.23;;;12.20;34.10;;;;;;5111952;28;20031;-64
2022/02/06 10:47:52;;;;;;;3.50;1.20;;;12.10;34.10;;;;;;5117575;27;20042;-62
2022/02/06 10:50:28;;;;;;;2.97;1.20;;;12.10;34.20;;;;;;5111935;28;20020;-63
2022/02/06 10:53:15;;;;;;;3.10;1.13;;;12.10;34.40;;;;;;5112473;28;20135;-64
2022/02/06 10:56:01;;;;;;;2.28;1.10;;;12.00;33.30;;;;;;5113490;28;20043;-64
2022/02/06 10:58:29;;;;;;;3.15;1.10;;;12.10;33.60;;;;;;5111846;27;20016;-64
2022/02/06 11:00:55;;;;;;;3.00;1.25;;;12.30;33.40;;;;;;5104358;28;20036;-62
2022/02/06 11:03:31;;;;;;;2.13;1.20;;;12.40;33.10;;;;;;5109047;28;20537;-63
2022/02/06 11:06:07;;;;;;;3.95;1.60;;;12.50;33.20;;;;;;5106107;28;20447;-63
2022/02/06 11:08:34;;;;;;;3.33;1.00;;;12.60;33.10;;;;;;5113159;28;20046;-63
2022/02/06 11:11:08;;;;;;;2.97;1.20;;;12.60;32.60;;;;;;5111417;28;20028;-63
2022/02/06 11:13:35;;;;;;;5.00;1.27;;;12.70;32.80;;;;;;5109325;28;20031;-62
2022/02/06 11:16:13;;;;;;;3.65;1.20;;;12.90;32.80;;;;;;5137578;27;20074;-65
2022/02/06 11:19:01;;;;;;;1.35;0.80;;;12.90;31.40;;;;;;5104327;28;20051;-61
2022/02/06 11:21:27;;;;;;;2.15;1.00;;;12.70;30.50;;;;;;5103190;28;20063;-60
2022/02/06 11:23:55;;;;;;;3.45;1.30;;;12.70;30.50;;;;;;5101506;28;20431;-69
2022/02/06 11:26:24;;;;;;;3.17;1.15;;;12.70;31.00;;;;;;5103985;27;20037;-63
2022/02/06 11:28:54;;;;;;;3.10;1.20;;;12.70;31.00;;;;;;5107246;28;20419;-63
2022/02/06 11:31:20;;;;;;;2.97;1.45;;;12.90;31.10;;;;;;5111939;28;20450;-65
2022/02/06 11:33:47;;;;;;;3.50;1.20;;;13.00;30.70;;;;;;5102008;28;20051;-66
2022/02/06 11:36:17;;;;;;;2.35;1.27;;;13.40;30.90;;;;;;5103420;28;20034;-64
2022/02/06 11:45:07;;;;;;;3.83;1.30;;;14.30;28.80;;;;;;5107837;28;20038;-65
2022/02/06 11:47:44;;;;;;;3.92;1.80;;;14.10;28.80;;;;;;5112690;27;20047;-64
2022/02/06 11:50:11;;;;;;;4.05;2.10;;;13.80;29.30;;;;;;5112155;27;20035;-64
2022/02/06 11:52:56;;;;;;;3.85;1.50;;;13.60;29.30;;;;;;5110377;28;20031;-63
2022/02/06 11:55:43;;;;;;;3.33;1.30;;;13.60;28.70;;;;;;5110239;28;20416;-63
2022/02/06 11:58:32;;;;;;;3.83;1.75;;;13.50;28.60;;;;;;5112087;28;20051;-63
2022/02/06 12:01:24;;;;;;;4.22;1.40;;;13.40;28.60;;;;;;5105339;28;20039;-63
2022/02/06 12:03:53;;;;;;;2.35;1.30;;;13.40;27.90;;;;;;5085617;28;20032;-63
2022/02/06 12:06:21;;;;;;;3.97;1.40;;;13.40;28.20;;;;;;5110401;28;20034;-64
2022/02/06 12:08:59;;;;;;;4.70;1.20;;;13.40;27.50;;;;;;5108478;28;20047;-63
2022/02/06 12:11:29;;;;;;;3.47;1.65;;;13.40;27.00;;;;;;5111611;28;20464;-64
2022/02/06 12:14:12;;;;;;;3.60;1.52;;;13.50;27.10;;;;;;5110448;28;20028;-64
2022/02/06 12:16:51;;;;;;;2.20;1.25;;;13.60;26.30;;;;;;5111117;28;20027;-65
2022/02/06 12:19:31;;;;;;;3.65;1.30;;;13.70;26.50;;;;;;5102530;28;20073;-63
2022/02/06 12:22:18;;;;;;;5.28;1.48;;;13.80;26.50;;;;;;5104269;28;20154;-63
2022/02/06 12:24:44;;;;;;;6.30;1.42;;;13.90;26.30;;;;;;5096076;28;20028;-64
2022/02/06 12:27:26;;;;;;;1.65;1.08;;;14.10;26.40;;;;;;5105380;28;20083;-63
2022/02/06 12:29:59;;;;;;;5.30;2.50;;;14.20;25.90;;;;;;5102153;28;20035;-64
2022/02/06 12:32:33;;;;;;;9.25;3.78;;;14.40;27.90;;;;;;5110766;27;20415;-64
2022/02/06 12:37:45;;;;;;;7.85;4.53;;;14.20;30.30;;;;;;5111622;28;20046;-64
2022/02/06 12:40:21;;;;;;;7.00;3.70;;;13.90;30.80;;;;;;5111291;28;20038;-63
2022/02/06 12:42:58;;;;;;;5.13;3.15;;;13.70;30.80;;;;;;5093988;28;20028;-63
2022/02/06 12:45:24;;;;;;;6.07;3.53;;;13.60;30.80;;;;;;5109872;28;20024;-62
2022/02/06 12:47:53;;;;;;;7.10;3.25;;;13.50;30.70;;;;;;5111836;28;20397;-65
2022/02/06 12:50:40;;;;;;;5.70;3.00;;;13.50;30.40;;;;;;5109338;28;20116;-63
2022/02/06 12:53:14;;;;;;;6.25;3.22;;;13.40;30.00;;;;;;5105788;28;20024;-62
2022/02/06 12:55:40;;;;;;;6.80;3.22;;;13.30;30.00;;;;;;5100098;28;20101;-63
2022/02/06 12:58:11;;;;;;;5.75;3.03;;;13.10;30.50;;;;;;5099035;28;20019;-63
2022/02/06 13:00:44;;;;;;;4.30;2.95;;;13.10;30.60;;;;;;5099545;28;20032;-62
2022/02/06 13:03:23;;;;;;;6.90;3.55;;;13.10;30.90;;;;;;5110415;28;20128;-62
2022/02/06 13:05:59;;;;;;;7.20;3.40;;;13.10;30.90;;;;;;5110081;28;20369;-63
2022/02/06 13:08:25;;;;;;;6.88;3.63;;;13.00;31.00;;;;;;5106981;28;20024;-64
2022/02/06 13:10:59;;;;;;;7.45;3.58;;;12.90;31.30;;;;;;5110872;28;20031;-62
2022/02/06 13:13:32;;;;;;;7.90;4.00;;;12.90;31.60;;;;;;5110765;28;20115;-62
2022/02/06 13:16:33;;;;;;;6.53;3.45;;;12.80;31.80;;;;;;5112019;28;20038;-63
2022/02/06 13:24:28;;;;;;;9.50;3.92;;;12.90;31.70;;;;;;5054542;28;20143;-65
2022/02/06 13:29:52;;;;;;;6.45;3.30;;;12.90;31.60;;;;;;5103362;28;20034;-62
2022/02/06 13:32:58;;;;;;;7.35;4.25;;;12.80;31.70;;;;;;5113570;28;20488;-65
2022/02/06 13:38:01;;;;;;;7.15;4.32;;;12.60;32.00;;;;;;5104793;28;20039;-65
2022/02/06 13:40:31;;;;;;;6.97;4.25;;;12.50;32.20;;;;;;5103936;28;20061;-65
2022/02/06 13:43:01;;;;;;;6.50;4.47;;;12.50;32.30;;;;;;5104444;28;20020;-62
2022/02/06 13:45:28;;;;;;;8.07;4.03;;;12.40;32.30;;;;;;5110935;28;20034;-64
2022/02/06 13:47:56;;;;;;;7.32;4.05;;;12.40;32.60;;;;;;5106697;28;20479;-67
2022/02/06 13:50:24;;;;;;;6.47;4.00;;;12.30;32.70;;;;;;5113214;28;20127;-68
2022/02/06 13:53:10;;;;;;;8.73;4.32;;;12.20;32.90;;;;;;5112358;28;20036;-62
2022/02/06 13:55:52;;;;;;;11.05;4.50;;;12.20;33.00;;;;;;5109955;28;20026;-72
2022/02/06 13:58:24;;;;;;;9.05;4.63;;;12.20;33.20;;;;;;5108193;28;20030;-61
2022/02/06 14:01:02;;;;;;;11.20;6.82;;;12.10;33.00;;;;;;5103244;28;20043;-60
2022/02/06 14:03:52;;;;;;;13.98;8.88;;;12.10;32.80;;;;;;5107523;28;20149;-61
2022/02/06 14:06:21;;;;;;;14.52;8.25;;;12.10;32.60;;;;;;5111964;28;20028;-61
2022/02/06 14:09:14;;;;;;;26.83;14.15;;;12.10;32.80;;;;;;5111447;28;20024;-60
2022/02/06 14:11:59;;;;;;;9.80;5.57;;;12.10;33.00;;;;;;5113742;27;20382;-61
2022/02/06 14:14:27;;;;;;;5.82;3.85;;;12.00;32.60;;;;;;5109566;28;20058;-62
2022/02/06 14:16:55;;;;;;;9.13;4.22;;;12.00;32.50;;;;;;5113031;27;20076;-61
2022/02/06 14:19:44;;;;;;;12.20;7.38;;;11.90;32.50;;;;;;5111361;28;20024;-61
2022/02/06 14:22:23;;;;;;;16.25;8.75;;;11.90;32.40;;;;;;5108980;28;20047;-61
2022/02/06 14:24:49;;;;;;;4.78;2.90;;;11.90;32.20;;;;;;5111173;28;20379;-61
2022/02/06 14:27:39;;;;;;;14.98;7.82;;;11.80;32.20;;;;;;5110437;28;20031;-62
2022/02/06 14:30:13;;;;;;;8.23;4.63;;;11.80;32.30;;;;;;5106367;28;20027;-60
2022/02/06 14:32:58;;;;;;;7.28;3.95;;;11.90;32.40;;;;;;5106765;28;20490;-62
2022/02/06 14:35:35;;;;;;;6.32;3.47;;;11.90;32.30;;;;;;5108183;28;20023;-63
2022/02/06 14:38:04;;;;;;;6.30;3.80;;;11.90;32.40;;;;;;5093863;28;20050;-61
2022/02/06 14:40:51;;;;;;;9.88;4.60;;;11.90;32.60;;;;;;5109807;28;20110;-59
2022/02/06 14:43:31;;;;;;;9.27;5.15;;;11.80;32.70;;;;;;5110249;28;20023;-61
2022/02/06 14:45:57;;;;;;;7.45;4.20;;;11.80;32.80;;;;;;5112315;28;20047;-63
2022/02/06 14:48:27;;;;;;;16.20;6.07;;;11.80;33.00;;;;;;5113361;28;20444;-62
2022/02/06 14:50:53;;;;;;;12.25;5.50;;;11.90;33.10;;;;;;5111142;28;20165;-62
2022/02/06 14:53:20;;;;;;;15.40;6.78;;;11.90;33.30;;;;;;5108959;28;20034;-61
2022/02/06 14:55:48;;;;;;;12.45;5.78;;;11.90;33.30;;;;;;5111796;28;20024;-62
2022/02/06 14:58:14;;;;;;;10.13;4.70;;;11.90;33.30;;;;;;5107845;27;20024;-62
2022/02/06 15:00:41;;;;;;;11.43;4.72;;;11.90;33.40;;;;;;5100697;28;20039;-62
2022/02/06 15:03:13;;;;;;;9.75;4.85;;;11.90;33.50;;;;;;5112236;28;20042;-62
2022/02/06 15:05:40;;;;;;;9.67;4.67;;;11.90;33.40;;;;;;5113464;28;20054;-62
2022/02/06 15:08:06;;;;;;;8.30;4.55;;;11.90;33.60;;;;;;5112508;28;20024;-62
2022/02/06 15:10:35;;;;;;;6.53;3.80;;;11.80;33.50;;;;;;5112674;28;20035;-62
2022/02/06 15:13:02;;;;;;;13.38;7.72;;;11.70;33.50;;;;;;5113562;28;20024;-62
2022/02/06 15:15:36;;;;;;;7.65;4.15;;;11.70;33.70;;;;;;5112903;28;20019;-62
2022/02/06 15:20:48;;;;;;;8.48;4.50;;;11.70;33.80;;;;;;5113445;28;20051;-63
2022/02/06 15:23:14;;;;;;;9.43;4.60;;;11.70;33.90;;;;;;5102827;28;20062;-63
2022/02/06 15:25:40;;;;;;;8.15;4.22;;;11.70;34.00;;;;;;5109705;28;20038;-64
2022/02/06 15:28:06;;;;;;;9.23;4.95;;;11.70;34.20;;;;;;5113763;28;20380;-62
2022/02/06 15:30:31;;;;;;;8.60;5.13;;;11.70;34.20;;;;;;5112738;28;20022;-62
2022/02/06 15:32:57;;;;;;;54.97;25.65;;;11.70;34.30;;;;;;5111698;28;20043;-63
2022/02/06 15:35:23;;;;;;;18.00;8.45;;;11.70;34.40;;;;;;5112353;28;20407;-61
2022/02/06 15:37:49;;;;;;;45.92;18.98;;;11.70;34.40;;;;;;5112922;28;20422;-62
2022/02/06 15:40:19;;;;;;;88.13;32.03;;;11.70;34.30;;;;;;5112440;28;20027;-62
2022/02/06 15:42:45;;;;;;;34.47;15.50;;;11.70;34.20;;;;;;5112447;28;20036;-63